Shenandoah, IA (51601)

3:41 PM CDT on May 06, 2015 (GMT -0500)
Cottage and Maple | | Change Station
CLOSE
Current Station
Personal Weather Station
Location: Shenandoah, IA
Elevation: 1016 ft
Nearby Weather Stations

Elev 1016 ft 40.76 °N, 95.37 °W | Updated 10 seconds ago

Scattered Clouds
Scattered Clouds
71.9 °F
Feels Like 75 °F
N
16.0
Wind Variable Wind from SE
Gusts 18.0 mph

Today
High -- | Low -- °F
--% Chance of Precip.
Yesterday
High -- | Low -- °F
Precip. -- in
6:14 AM 8:22 PM
Waning Gibbous, 92% visible
Pressure 29.86 in
Visibility 10.0 miles
Clouds Scattered Clouds 4700 ft
Heat Index 75 °F
Dew Point 61 °F
Humidity 68%
Rainfall 0.20 in
Snow Depth Not available.
UV 7 out of 12
Pollen 7.70 out of 12
Air Quality Not available.
Flu Activity Local Activity
METAR KSDA 062015Z AUTO 16016G25KT 10SM SCT047 22/18 A2986 RMK AO2

More Conditions Fewer Conditions

Pressure 29.86 in
Visibility 10.0 miles
Clouds Scattered Clouds 4700 ft
Heat Index 75 °F
Dew Point 61 °F
Humidity 68%
Rainfall 0.20 in
Snow Depth Not available.
UV 7 out of 12
Pollen 7.70 out of 12
Air Quality Not available.
Flu Activity Local Activity
METAR KSDA 062015Z AUTO 16016G25KT 10SM SCT047 22/18 A2986 RMK AO2

More Conditions Fewer Conditions

10-Day Weather Forecast

Almanac

Astronomy

May. 06, 2015 Rise Set
Actual Time
Civil Twilight
Nautical Twilight
Astronomical Twilight
Moon
Length of Visible Light
Length of Day
Tomorrow will be .
, % of the Moon is Illuminated

Today's Extremes

State Highs State Lows

Community

WunderPhotos

Upload Photos

1,819,012 photos uploaded!

WunderBlogs® & News

Nearby

Air Quality

  Air Quality AQ Index Pollutant
Not available.

Snow Depth

Station Depth Elevation

Earthquake Activity

City Distance Mag. Time & Date
Minimum magnitude displayed is 2.5.

Coastal Water Temperatures

Place Temperature

Stations

Nearby Weather Stations

Station Location Temp. Windchill Dew Point Humidity Wind Precip. Elev Updated Type